sensor_id;sensor_type;location;lat;lon;timestamp;P1;durP1;ratioP1;P2;durP2;ratioP2
85223;SDS011;75619;51.316;4.824;2024-02-15T00:01:35;17.95;;;7.13;;
85223;SDS011;75619;51.316;4.824;2024-02-15T00:04:00;14.55;;;6.30;;
85223;SDS011;75619;51.316;4.824;2024-02-15T00:06:27;15.93;;;6.45;;
85223;SDS011;75619;51.316;4.824;2024-02-15T00:08:53;16.27;;;6.57;;
85223;SDS011;75619;51.316;4.824;2024-02-15T00:11:21;19.92;;;7.35;;
85223;SDS011;75619;51.316;4.824;2024-02-15T00:13:47;17.45;;;6.85;;
85223;SDS011;75619;51.316;4.824;2024-02-15T00:16:14;16.35;;;6.45;;
85223;SDS011;75619;51.316;4.824;2024-02-15T00:18:41;17.13;;;7.13;;
85223;SDS011;75619;51.316;4.824;2024-02-15T00:21:09;19.42;;;6.30;;
85223;SDS011;75619;51.316;4.824;2024-02-15T00:23:38;21.90;;;7.35;;
85223;SDS011;75619;51.316;4.824;2024-02-15T00:26:07;20.05;;;7.18;;
85223;SDS011;75619;51.316;4.824;2024-02-15T00:28:35;14.25;;;6.43;;
85223;SDS011;75619;51.316;4.824;2024-02-15T00:31:01;18.52;;;6.93;;
85223;SDS011;75619;51.316;4.824;2024-02-15T00:33:27;21.92;;;7.63;;
85223;SDS011;75619;51.316;4.824;2024-02-15T00:35:55;26.65;;;7.60;;
85223;SDS011;75619;51.316;4.824;2024-02-15T00:38:22;22.42;;;8.13;;
85223;SDS011;75619;51.316;4.824;2024-02-15T00:40:47;29.00;;;8.32;;
85223;SDS011;75619;51.316;4.824;2024-02-15T00:43:13;20.67;;;8.02;;
85223;SDS011;75619;51.316;4.824;2024-02-15T00:45:39;15.70;;;8.95;;
85223;SDS011;75619;51.316;4.824;2024-02-15T00:48:05;16.40;;;7.15;;
85223;SDS011;75619;51.316;4.824;2024-02-15T00:50:31;23.67;;;6.97;;
85223;SDS011;75619;51.316;4.824;2024-02-15T00:52:57;17.77;;;6.88;;
85223;SDS011;75619;51.316;4.824;2024-02-15T00:55:22;16.23;;;7.03;;
85223;SDS011;75619;51.316;4.824;2024-02-15T00:57:48;17.15;;;7.13;;
85223;SDS011;75619;51.316;4.824;2024-02-15T01:00:13;19.45;;;6.70;;
85223;SDS011;75619;51.316;4.824;2024-02-15T01:02:39;20.80;;;7.57;;
85223;SDS011;75619;51.316;4.824;2024-02-15T01:05:05;20.73;;;6.32;;
85223;SDS011;75619;51.316;4.824;2024-02-15T01:07:31;17.08;;;6.65;;
85223;SDS011;75619;51.316;4.824;2024-02-15T01:09:56;16.73;;;5.68;;
85223;SDS011;75619;51.316;4.824;2024-02-15T01:12:22;16.20;;;5.57;;
85223;SDS011;75619;51.316;4.824;2024-02-15T01:14:48;20.40;;;6.80;;
85223;SDS011;75619;51.316;4.824;2024-02-15T01:17:14;17.27;;;5.55;;
85223;SDS011;75619;51.316;4.824;2024-02-15T01:19:40;16.73;;;5.30;;
85223;SDS011;75619;51.316;4.824;2024-02-15T01:22:06;18.58;;;6.43;;
85223;SDS011;75619;51.316;4.824;2024-02-15T01:24:31;13.43;;;5.45;;
85223;SDS011;75619;51.316;4.824;2024-02-15T01:26:57;15.55;;;5.05;;
85223;SDS011;75619;51.316;4.824;2024-02-15T01:29:23;17.90;;;5.78;;
85223;SDS011;75619;51.316;4.824;2024-02-15T01:31:51;20.20;;;6.53;;
85223;SDS011;75619;51.316;4.824;2024-02-15T01:34:17;15.55;;;4.85;;
85223;SDS011;75619;51.316;4.824;2024-02-15T01:36:43;16.55;;;5.50;;
85223;SDS011;75619;51.316;4.824;2024-02-15T01:39:08;13.38;;;5.15;;
85223;SDS011;75619;51.316;4.824;2024-02-15T01:41:34;19.80;;;5.35;;
85223;SDS011;75619;51.316;4.824;2024-02-15T01:43:59;16.27;;;5.30;;
85223;SDS011;75619;51.316;4.824;2024-02-15T01:46:25;16.92;;;5.30;;
85223;SDS011;75619;51.316;4.824;2024-02-15T01:48:51;14.93;;;5.25;;
85223;SDS011;75619;51.316;4.824;2024-02-15T01:51:16;20.63;;;5.88;;
85223;SDS011;75619;51.316;4.824;2024-02-15T01:53:44;16.83;;;4.45;;
85223;SDS011;75619;51.316;4.824;2024-02-15T01:56:10;13.77;;;5.53;;
85223;SDS011;75619;51.316;4.824;2024-02-15T01:58:39;14.55;;;3.95;;
85223;SDS011;75619;51.316;4.824;2024-02-15T02:01:06;19.70;;;5.70;;
85223;SDS011;75619;51.316;4.824;2024-02-15T02:03:32;11.18;;;4.55;;
85223;SDS011;75619;51.316;4.824;2024-02-15T02:05:57;12.35;;;3.95;;
85223;SDS011;75619;51.316;4.824;2024-02-15T02:08:24;12.80;;;4.40;;
85223;SDS011;75619;51.316;4.824;2024-02-15T02:10:50;10.07;;;3.95;;
85223;SDS011;75619;51.316;4.824;2024-02-15T02:13:17;11.55;;;4.40;;
85223;SDS011;75619;51.316;4.824;2024-02-15T02:15:44;10.73;;;4.47;;
85223;SDS011;75619;51.316;4.824;2024-02-15T02:18:09;13.27;;;4.15;;
85223;SDS011;75619;51.316;4.824;2024-02-15T02:20:35;10.75;;;4.38;;
85223;SDS011;75619;51.316;4.824;2024-02-15T02:23:03;23.52;;;4.10;;
85223;SDS011;75619;51.316;4.824;2024-02-15T02:25:39;10.68;;;4.00;;
85223;SDS011;75619;51.316;4.824;2024-02-15T02:28:07;15.35;;;3.30;;
85223;SDS011;75619;51.316;4.824;2024-02-15T02:30:34;8.75;;;3.30;;
85223;SDS011;75619;51.316;4.824;2024-02-15T02:33:00;9.80;;;3.53;;
85223;SDS011;75619;51.316;4.824;2024-02-15T02:35:27;12.95;;;3.88;;
85223;SDS011;75619;51.316;4.824;2024-02-15T02:37:55;12.20;;;3.60;;
85223;SDS011;75619;51.316;4.824;2024-02-15T02:40:21;12.57;;;3.10;;
85223;SDS011;75619;51.316;4.824;2024-02-15T02:42:51;13.65;;;3.70;;
85223;SDS011;75619;51.316;4.824;2024-02-15T02:45:18;11.15;;;3.00;;
85223;SDS011;75619;51.316;4.824;2024-02-15T02:47:54;17.65;;;3.60;;
85223;SDS011;75619;51.316;4.824;2024-02-15T02:50:22;12.52;;;3.80;;
85223;SDS011;75619;51.316;4.824;2024-02-15T02:52:49;12.38;;;3.67;;
85223;SDS011;75619;51.316;4.824;2024-02-15T02:55:15;8.65;;;3.25;;
85223;SDS011;75619;51.316;4.824;2024-02-15T02:57:40;10.38;;;3.70;;
85223;SDS011;75619;51.316;4.824;2024-02-15T03:00:11;15.40;;;3.58;;
85223;SDS011;75619;51.316;4.824;2024-02-15T03:02:40;8.48;;;2.90;;
85223;SDS011;75619;51.316;4.824;2024-02-15T03:05:06;9.77;;;2.88;;
85223;SDS011;75619;51.316;4.824;2024-02-15T03:07:33;12.65;;;3.30;;
85223;SDS011;75619;51.316;4.824;2024-02-15T03:10:03;11.63;;;3.08;;
85223;SDS011;75619;51.316;4.824;2024-02-15T03:12:33;8.05;;;3.45;;
85223;SDS011;75619;51.316;4.824;2024-02-15T03:15:01;12.30;;;3.05;;
85223;SDS011;75619;51.316;4.824;2024-02-15T03:17:27;19.73;;;3.65;;
85223;SDS011;75619;51.316;4.824;2024-02-15T03:19:52;15.38;;;3.00;;
85223;SDS011;75619;51.316;4.824;2024-02-15T03:22:18;9.10;;;3.13;;
85223;SDS011;75619;51.316;4.824;2024-02-15T03:24:44;6.82;;;3.00;;
85223;SDS011;75619;51.316;4.824;2024-02-15T03:27:09;8.07;;;3.15;;
85223;SDS011;75619;51.316;4.824;2024-02-15T03:29:35;13.52;;;3.20;;
85223;SDS011;75619;51.316;4.824;2024-02-15T03:32:01;11.68;;;3.45;;
85223;SDS011;75619;51.316;4.824;2024-02-15T03:34:31;16.45;;;2.88;;
85223;SDS011;75619;51.316;4.824;2024-02-15T03:36:57;11.40;;;3.33;;
85223;SDS011;75619;51.316;4.824;2024-02-15T03:39:23;11.25;;;3.03;;
85223;SDS011;75619;51.316;4.824;2024-02-15T03:41:49;9.48;;;2.75;;
85223;SDS011;75619;51.316;4.824;2024-02-15T03:44:18;14.38;;;3.30;;
85223;SDS011;75619;51.316;4.824;2024-02-15T03:46:44;6.68;;;2.70;;
85223;SDS011;75619;51.316;4.824;2024-02-15T03:49:19;7.15;;;2.97;;
85223;SDS011;75619;51.316;4.824;2024-02-15T03:51:45;18.15;;;3.65;;
85223;SDS011;75619;51.316;4.824;2024-02-15T03:54:11;8.32;;;3.20;;
85223;SDS011;75619;51.316;4.824;2024-02-15T03:56:37;11.55;;;3.50;;
85223;SDS011;75619;51.316;4.824;2024-02-15T03:59:11;14.88;;;3.22;;
85223;SDS011;75619;51.316;4.824;2024-02-15T04:01:38;10.38;;;2.85;;
85223;SDS011;75619;51.316;4.824;2024-02-15T04:04:04;10.80;;;3.20;;
85223;SDS011;75619;51.316;4.824;2024-02-15T04:06:30;10.27;;;2.83;;
85223;SDS011;75619;51.316;4.824;2024-02-15T04:08:58;8.25;;;2.53;;
85223;SDS011;75619;51.316;4.824;2024-02-15T04:11:25;12.88;;;3.50;;
85223;SDS011;75619;51.316;4.824;2024-02-15T04:13:50;14.70;;;3.55;;
85223;SDS011;75619;51.316;4.824;2024-02-15T04:16:16;12.68;;;2.88;;
85223;SDS011;75619;51.316;4.824;2024-02-15T04:18:41;10.93;;;3.42;;
85223;SDS011;75619;51.316;4.824;2024-02-15T04:21:09;7.82;;;3.33;;
85223;SDS011;75619;51.316;4.824;2024-02-15T04:23:34;7.72;;;3.45;;
85223;SDS011;75619;51.316;4.824;2024-02-15T04:26:00;13.13;;;3.20;;
85223;SDS011;75619;51.316;4.824;2024-02-15T04:28:25;11.60;;;3.83;;
85223;SDS011;75619;51.316;4.824;2024-02-15T04:30:52;7.25;;;2.70;;
85223;SDS011;75619;51.316;4.824;2024-02-15T04:33:17;13.10;;;3.60;;
85223;SDS011;75619;51.316;4.824;2024-02-15T04:35:43;8.82;;;3.08;;
85223;SDS011;75619;51.316;4.824;2024-02-15T04:38:10;11.30;;;3.95;;
85223;SDS011;75619;51.316;4.824;2024-02-15T04:40:35;8.95;;;3.08;;
85223;SDS011;75619;51.316;4.824;2024-02-15T04:43:04;7.30;;;2.78;;
85223;SDS011;75619;51.316;4.824;2024-02-15T04:45:29;8.90;;;2.63;;
85223;SDS011;75619;51.316;4.824;2024-02-15T04:47:56;7.30;;;2.60;;
85223;SDS011;75619;51.316;4.824;2024-02-15T04:50:22;11.90;;;3.13;;
85223;SDS011;75619;51.316;4.824;2024-02-15T04:52:47;7.80;;;2.78;;
85223;SDS011;75619;51.316;4.824;2024-02-15T04:55:15;8.25;;;2.35;;
85223;SDS011;75619;51.316;4.824;2024-02-15T04:57:42;8.98;;;2.55;;
85223;SDS011;75619;51.316;4.824;2024-02-15T05:00:08;6.80;;;2.85;;
85223;SDS011;75619;51.316;4.824;2024-02-15T05:02:35;19.13;;;2.83;;
85223;SDS011;75619;51.316;4.824;2024-02-15T05:05:06;12.93;;;3.47;;
85223;SDS011;75619;51.316;4.824;2024-02-15T05:07:35;13.13;;;3.20;;
85223;SDS011;75619;51.316;4.824;2024-02-15T05:10:05;8.15;;;2.90;;
85223;SDS011;75619;51.316;4.824;2024-02-15T05:12:34;11.10;;;2.80;;
85223;SDS011;75619;51.316;4.824;2024-02-15T05:14:59;9.05;;;3.03;;
85223;SDS011;75619;51.316;4.824;2024-02-15T05:17:25;9.05;;;3.20;;
85223;SDS011;75619;51.316;4.824;2024-02-15T05:19:53;6.53;;;3.03;;
85223;SDS011;75619;51.316;4.824;2024-02-15T05:22:19;17.60;;;3.40;;
85223;SDS011;75619;51.316;4.824;2024-02-15T05:24:45;15.00;;;2.70;;
85223;SDS011;75619;51.316;4.824;2024-02-15T05:27:10;13.50;;;3.60;;
85223;SDS011;75619;51.316;4.824;2024-02-15T05:29:36;8.52;;;2.50;;
85223;SDS011;75619;51.316;4.824;2024-02-15T05:32:02;11.48;;;3.47;;
85223;SDS011;75619;51.316;4.824;2024-02-15T05:34:28;8.25;;;2.90;;
85223;SDS011;75619;51.316;4.824;2024-02-15T05:36:56;13.73;;;2.83;;
85223;SDS011;75619;51.316;4.824;2024-02-15T05:39:21;10.32;;;2.70;;
85223;SDS011;75619;51.316;4.824;2024-02-15T05:41:48;8.18;;;3.00;;
85223;SDS011;75619;51.316;4.824;2024-02-15T05:44:14;10.10;;;3.00;;
85223;SDS011;75619;51.316;4.824;2024-02-15T05:46:44;8.10;;;3.03;;
85223;SDS011;75619;51.316;4.824;2024-02-15T05:49:10;14.10;;;3.90;;
85223;SDS011;75619;51.316;4.824;2024-02-15T05:51:40;11.13;;;2.88;;
85223;SDS011;75619;51.316;4.824;2024-02-15T05:54:06;12.13;;;3.42;;
85223;SDS011;75619;51.316;4.824;2024-02-15T05:56:32;10.73;;;3.92;;
85223;SDS011;75619;51.316;4.824;2024-02-15T05:58:58;11.98;;;3.60;;
85223;SDS011;75619;51.316;4.824;2024-02-15T06:01:23;8.27;;;3.53;;
85223;SDS011;75619;51.316;4.824;2024-02-15T06:03:49;7.60;;;2.97;;
85223;SDS011;75619;51.316;4.824;2024-02-15T06:06:19;14.88;;;2.83;;
85223;SDS011;75619;51.316;4.824;2024-02-15T06:08:46;14.05;;;3.20;;
85223;SDS011;75619;51.316;4.824;2024-02-15T06:11:14;7.95;;;3.00;;
85223;SDS011;75619;51.316;4.824;2024-02-15T06:13:45;9.13;;;3.08;;
85223;SDS011;75619;51.316;4.824;2024-02-15T06:16:11;7.53;;;3.05;;
85223;SDS011;75619;51.316;4.824;2024-02-15T06:18:36;7.07;;;3.08;;
85223;SDS011;75619;51.316;4.824;2024-02-15T06:21:03;8.35;;;2.95;;
85223;SDS011;75619;51.316;4.824;2024-02-15T06:23:28;8.77;;;2.95;;
85223;SDS011;75619;51.316;4.824;2024-02-15T06:25:55;8.65;;;2.75;;
85223;SDS011;75619;51.316;4.824;2024-02-15T06:28:23;6.90;;;2.97;;
85223;SDS011;75619;51.316;4.824;2024-02-15T06:31:07;12.25;;;3.20;;
85223;SDS011;75619;51.316;4.824;2024-02-15T06:33:52;13.27;;;3.22;;
85223;SDS011;75619;51.316;4.824;2024-02-15T06:36:47;14.20;;;3.92;;
85223;SDS011;75619;51.316;4.824;2024-02-15T06:39:35;9.02;;;3.72;;
85223;SDS011;75619;51.316;4.824;2024-02-15T06:42:06;8.68;;;3.28;;
85223;SDS011;75619;51.316;4.824;2024-02-15T06:44:32;10.40;;;3.20;;
85223;SDS011;75619;51.316;4.824;2024-02-15T06:46:57;8.45;;;3.08;;
85223;SDS011;75619;51.316;4.824;2024-02-15T06:49:23;11.77;;;2.95;;
85223;SDS011;75619;51.316;4.824;2024-02-15T06:51:51;11.38;;;3.25;;
85223;SDS011;75619;51.316;4.824;2024-02-15T06:54:17;8.93;;;4.32;;
85223;SDS011;75619;51.316;4.824;2024-02-15T06:56:46;9.57;;;3.20;;
85223;SDS011;75619;51.316;4.824;2024-02-15T06:59:12;10.43;;;3.25;;
85223;SDS011;75619;51.316;4.824;2024-02-15T07:01:43;11.73;;;3.33;;
85223;SDS011;75619;51.316;4.824;2024-02-15T07:04:09;12.77;;;2.53;;
85223;SDS011;75619;51.316;4.824;2024-02-15T07:06:38;9.82;;;2.70;;
85223;SDS011;75619;51.316;4.824;2024-02-15T07:09:07;7.30;;;2.90;;
85223;SDS011;75619;51.316;4.824;2024-02-15T07:11:33;12.23;;;3.08;;
85223;SDS011;75619;51.316;4.824;2024-02-15T07:14:02;9.25;;;3.10;;
85223;SDS011;75619;51.316;4.824;2024-02-15T07:16:29;10.82;;;2.95;;
85223;SDS011;75619;51.316;4.824;2024-02-15T07:18:55;7.03;;;2.53;;
85223;SDS011;75619;51.316;4.824;2024-02-15T07:21:21;9.13;;;3.45;;
85223;SDS011;75619;51.316;4.824;2024-02-15T07:23:51;9.73;;;3.60;;
85223;SDS011;75619;51.316;4.824;2024-02-15T07:26:19;10.73;;;2.95;;
85223;SDS011;75619;51.316;4.824;2024-02-15T07:28:46;6.53;;;2.67;;
85223;SDS011;75619;51.316;4.824;2024-02-15T07:31:13;8.15;;;3.00;;
85223;SDS011;75619;51.316;4.824;2024-02-15T07:33:40;8.82;;;2.65;;
85223;SDS011;75619;51.316;4.824;2024-02-15T07:36:08;10.77;;;3.30;;
85223;SDS011;75619;51.316;4.824;2024-02-15T07:38:33;9.82;;;2.90;;
85223;SDS011;75619;51.316;4.824;2024-02-15T07:40:59;12.23;;;3.63;;
85223;SDS011;75619;51.316;4.824;2024-02-15T07:43:25;12.40;;;3.10;;
85223;SDS011;75619;51.316;4.824;2024-02-15T07:45:51;10.55;;;3.17;;
85223;SDS011;75619;51.316;4.824;2024-02-15T07:48:17;9.35;;;3.92;;
85223;SDS011;75619;51.316;4.824;2024-02-15T07:50:43;12.13;;;4.03;;
85223;SDS011;75619;51.316;4.824;2024-02-15T07:53:09;9.68;;;2.97;;
85223;SDS011;75619;51.316;4.824;2024-02-15T07:55:36;8.68;;;3.03;;
85223;SDS011;75619;51.316;4.824;2024-02-15T07:58:03;9.65;;;3.10;;
85223;SDS011;75619;51.316;4.824;2024-02-15T08:00:30;7.97;;;2.58;;
85223;SDS011;75619;51.316;4.824;2024-02-15T08:02:55;11.32;;;4.38;;
85223;SDS011;75619;51.316;4.824;2024-02-15T08:05:22;11.18;;;3.45;;
85223;SDS011;75619;51.316;4.824;2024-02-15T08:07:48;10.73;;;3.78;;
85223;SDS011;75619;51.316;4.824;2024-02-15T08:10:14;11.10;;;3.30;;
85223;SDS011;75619;51.316;4.824;2024-02-15T08:12:40;10.68;;;2.90;;
85223;SDS011;75619;51.316;4.824;2024-02-15T08:15:08;6.85;;;2.72;;
85223;SDS011;75619;51.316;4.824;2024-02-15T08:17:39;6.93;;;3.15;;
85223;SDS011;75619;51.316;4.824;2024-02-15T08:20:11;9.55;;;2.88;;
85223;SDS011;75619;51.316;4.824;2024-02-15T08:22:38;7.93;;;2.38;;
85223;SDS011;75619;51.316;4.824;2024-02-15T08:25:06;10.43;;;2.45;;
85223;SDS011;75619;51.316;4.824;2024-02-15T08:27:39;10.80;;;2.25;;
85223;SDS011;75619;51.316;4.824;2024-02-15T08:30:08;8.82;;;2.40;;
85223;SDS011;75619;51.316;4.824;2024-02-15T08:32:36;5.22;;;2.53;;
85223;SDS011;75619;51.316;4.824;2024-02-15T08:35:10;5.78;;;2.10;;
85223;SDS011;75619;51.316;4.824;2024-02-15T08:37:37;12.57;;;2.83;;
85223;SDS011;75619;51.316;4.824;2024-02-15T08:40:07;8.05;;;2.67;;
85223;SDS011;75619;51.316;4.824;2024-02-15T08:42:40;10.77;;;3.03;;
85223;SDS011;75619;51.316;4.824;2024-02-15T08:45:06;9.73;;;2.22;;
85223;SDS011;75619;51.316;4.824;2024-02-15T08:47:38;9.93;;;2.42;;
85223;SDS011;75619;51.316;4.824;2024-02-15T08:50:05;9.10;;;2.30;;
85223;SDS011;75619;51.316;4.824;2024-02-15T08:52:36;7.13;;;2.25;;
85223;SDS011;75619;51.316;4.824;2024-02-15T08:55:06;5.40;;;2.05;;
85223;SDS011;75619;51.316;4.824;2024-02-15T08:57:33;7.78;;;2.42;;
85223;SDS011;75619;51.316;4.824;2024-02-15T08:59:59;6.22;;;2.45;;
85223;SDS011;75619;51.316;4.824;2024-02-15T09:02:25;11.77;;;2.58;;
85223;SDS011;75619;51.316;4.824;2024-02-15T09:04:51;7.78;;;2.50;;
85223;SDS011;75619;51.316;4.824;2024-02-15T09:07:17;6.40;;;2.63;;
85223;SDS011;75619;51.316;4.824;2024-02-15T09:09:42;6.75;;;2.25;;
85223;SDS011;75619;51.316;4.824;2024-02-15T09:12:08;8.05;;;2.60;;
85223;SDS011;75619;51.316;4.824;2024-02-15T09:14:35;8.13;;;2.83;;
85223;SDS011;75619;51.316;4.824;2024-02-15T09:17:04;6.28;;;2.17;;
85223;SDS011;75619;51.316;4.824;2024-02-15T09:19:36;11.00;;;2.70;;
85223;SDS011;75619;51.316;4.824;2024-02-15T09:22:02;10.40;;;4.00;;
85223;SDS011;75619;51.316;4.824;2024-02-15T09:24:31;10.13;;;3.67;;
85223;SDS011;75619;51.316;4.824;2024-02-15T09:27:01;12.32;;;4.68;;
85223;SDS011;75619;51.316;4.824;2024-02-15T09:29:27;6.75;;;2.60;;
85223;SDS011;75619;51.316;4.824;2024-02-15T09:31:55;8.82;;;2.20;;
85223;SDS011;75619;51.316;4.824;2024-02-15T09:34:23;8.13;;;3.08;;
85223;SDS011;75619;51.316;4.824;2024-02-15T09:36:49;9.13;;;2.85;;
85223;SDS011;75619;51.316;4.824;2024-02-15T09:39:14;7.35;;;3.13;;
85223;SDS011;75619;51.316;4.824;2024-02-15T09:41:40;3.95;;;1.98;;
85223;SDS011;75619;51.316;4.824;2024-02-15T09:44:11;7.32;;;3.00;;
85223;SDS011;75619;51.316;4.824;2024-02-15T09:46:42;6.38;;;2.58;;
85223;SDS011;75619;51.316;4.824;2024-02-15T09:49:13;8.30;;;2.50;;
85223;SDS011;75619;51.316;4.824;2024-02-15T09:51:40;15.18;;;4.22;;
85223;SDS011;75619;51.316;4.824;2024-02-15T09:54:08;9.02;;;3.33;;
85223;SDS011;75619;51.316;4.824;2024-02-15T09:56:36;8.90;;;2.70;;
85223;SDS011;75619;51.316;4.824;2024-02-15T09:59:03;9.45;;;3.15;;
85223;SDS011;75619;51.316;4.824;2024-02-15T10:01:30;6.15;;;2.22;;
85223;SDS011;75619;51.316;4.824;2024-02-15T10:03:57;5.25;;;2.72;;
85223;SDS011;75619;51.316;4.824;2024-02-15T10:06:24;6.78;;;2.45;;
85223;SDS011;75619;51.316;4.824;2024-02-15T10:09:06;9.43;;;2.40;;
85223;SDS011;75619;51.316;4.824;2024-02-15T10:12:00;5.63;;;2.47;;
85223;SDS011;75619;51.316;4.824;2024-02-15T10:14:29;7.40;;;2.90;;
85223;SDS011;75619;51.316;4.824;2024-02-15T10:16:55;8.35;;;1.85;;
85223;SDS011;75619;51.316;4.824;2024-02-15T10:19:22;4.65;;;2.08;;
85223;SDS011;75619;51.316;4.824;2024-02-15T10:21:51;8.00;;;2.33;;
85223;SDS011;75619;51.316;4.824;2024-02-15T10:24:23;6.25;;;2.00;;
85223;SDS011;75619;51.316;4.824;2024-02-15T10:27:00;8.02;;;2.40;;
85223;SDS011;75619;51.316;4.824;2024-02-15T10:29:32;4.40;;;1.90;;
85223;SDS011;75619;51.316;4.824;2024-02-15T10:31:59;6.30;;;1.98;;
85223;SDS011;75619;51.316;4.824;2024-02-15T10:34:26;7.35;;;1.85;;
85223;SDS011;75619;51.316;4.824;2024-02-15T10:39:38;6.72;;;2.42;;
85223;SDS011;75619;51.316;4.824;2024-02-15T10:42:06;8.52;;;2.42;;
85223;SDS011;75619;51.316;4.824;2024-02-15T10:44:36;8.63;;;1.90;;
85223;SDS011;75619;51.316;4.824;2024-02-15T10:47:04;4.75;;;1.80;;
85223;SDS011;75619;51.316;4.824;2024-02-15T10:49:34;6.30;;;2.17;;
85223;SDS011;75619;51.316;4.824;2024-02-15T10:52:01;9.55;;;2.03;;
85223;SDS011;75619;51.316;4.824;2024-02-15T10:57:13;7.63;;;2.67;;
85223;SDS011;75619;51.316;4.824;2024-02-15T10:59:48;6.40;;;2.22;;
85223;SDS011;75619;51.316;4.824;2024-02-15T11:02:27;9.48;;;2.72;;
85223;SDS011;75619;51.316;4.824;2024-02-15T11:07:35;5.93;;;2.35;;
85223;SDS011;75619;51.316;4.824;2024-02-15T11:10:02;6.85;;;1.80;;
85223;SDS011;75619;51.316;4.824;2024-02-15T11:12:33;14.18;;;1.83;;
85223;SDS011;75619;51.316;4.824;2024-02-15T11:15:02;5.45;;;2.40;;
85223;SDS011;75619;51.316;4.824;2024-02-15T11:22:58;5.40;;;2.20;;
85223;SDS011;75619;51.316;4.824;2024-02-15T11:25:35;4.63;;;1.80;;
85223;SDS011;75619;51.316;4.824;2024-02-15T11:30:48;7.00;;;2.00;;
85223;SDS011;75619;51.316;4.824;2024-02-15T11:33:32;6.43;;;2.38;;
85223;SDS011;75619;51.316;4.824;2024-02-15T11:38:28;13.02;;;3.05;;
85223;SDS011;75619;51.316;4.824;2024-02-15T11:46:21;9.32;;;2.20;;
85223;SDS011;75619;51.316;4.824;2024-02-15T11:48:50;5.00;;;1.63;;
85223;SDS011;75619;51.316;4.824;2024-02-15T11:54:01;6.57;;;2.50;;
85223;SDS011;75619;51.316;4.824;2024-02-15T11:56:58;7.07;;;2.53;;
85223;SDS011;75619;51.316;4.824;2024-02-15T11:59:42;9.05;;;2.60;;
85223;SDS011;75619;51.316;4.824;2024-02-15T12:02:27;4.00;;;1.77;;
85223;SDS011;75619;51.316;4.824;2024-02-15T12:05:11;8.50;;;2.30;;
85223;SDS011;75619;51.316;4.824;2024-02-15T12:07:55;7.88;;;2.60;;
85223;SDS011;75619;51.316;4.824;2024-02-15T12:10:41;7.32;;;2.45;;
85223;SDS011;75619;51.316;4.824;2024-02-15T12:13:25;6.53;;;1.77;;
85223;SDS011;75619;51.316;4.824;2024-02-15T12:16:09;11.70;;;1.92;;
85223;SDS011;75619;51.316;4.824;2024-02-15T12:18:53;4.93;;;1.70;;
85223;SDS011;75619;51.316;4.824;2024-02-15T12:21:23;5.40;;;1.85;;
85223;SDS011;75619;51.316;4.824;2024-02-15T12:23:52;8.05;;;2.97;;
85223;SDS011;75619;51.316;4.824;2024-02-15T12:26:21;9.00;;;2.55;;
85223;SDS011;75619;51.316;4.824;2024-02-15T12:28:53;4.88;;;1.98;;
85223;SDS011;75619;51.316;4.824;2024-02-15T12:31:26;4.97;;;1.85;;
85223;SDS011;75619;51.316;4.824;2024-02-15T12:34:00;3.83;;;1.40;;
85223;SDS011;75619;51.316;4.824;2024-02-15T12:36:34;6.07;;;1.48;;
85223;SDS011;75619;51.316;4.824;2024-02-15T12:39:04;5.05;;;1.67;;
85223;SDS011;75619;51.316;4.824;2024-02-15T12:41:41;3.40;;;1.70;;
85223;SDS011;75619;51.316;4.824;2024-02-15T12:44:15;5.43;;;1.63;;
85223;SDS011;75619;51.316;4.824;2024-02-15T12:46:41;5.18;;;1.13;;
85223;SDS011;75619;51.316;4.824;2024-02-15T12:49:10;5.43;;;1.55;;
85223;SDS011;75619;51.316;4.824;2024-02-15T12:57:33;5.78;;;1.40;;
85223;SDS011;75619;51.316;4.824;2024-02-15T13:00:01;5.07;;;2.05;;
85223;SDS011;75619;51.316;4.824;2024-02-15T13:02:37;8.35;;;1.70;;
85223;SDS011;75619;51.316;4.824;2024-02-15T13:05:03;6.35;;;1.67;;
85223;SDS011;75619;51.316;4.824;2024-02-15T13:07:30;4.45;;;1.38;;
85223;SDS011;75619;51.316;4.824;2024-02-15T13:09:56;2.58;;;1.27;;
85223;SDS011;75619;51.316;4.824;2024-02-15T13:12:22;4.25;;;1.02;;
85223;SDS011;75619;51.316;4.824;2024-02-15T13:14:49;6.03;;;1.40;;
85223;SDS011;75619;51.316;4.824;2024-02-15T13:17:16;6.10;;;1.50;;
85223;SDS011;75619;51.316;4.824;2024-02-15T13:19:45;4.18;;;1.30;;
85223;SDS011;75619;51.316;4.824;2024-02-15T13:22:14;4.95;;;1.65;;
85223;SDS011;75619;51.316;4.824;2024-02-15T13:24:46;5.43;;;1.23;;
85223;SDS011;75619;51.316;4.824;2024-02-15T13:27:11;3.95;;;1.35;;
85223;SDS011;75619;51.316;4.824;2024-02-15T13:29:38;4.20;;;1.20;;
85223;SDS011;75619;51.316;4.824;2024-02-15T13:32:06;3.17;;;1.40;;
85223;SDS011;75619;51.316;4.824;2024-02-15T13:34:32;3.63;;;1.95;;
85223;SDS011;75619;51.316;4.824;2024-02-15T13:37:01;3.30;;;1.27;;
85223;SDS011;75619;51.316;4.824;2024-02-15T13:39:29;2.92;;;1.10;;
85223;SDS011;75619;51.316;4.824;2024-02-15T13:42:01;4.10;;;1.10;;
85223;SDS011;75619;51.316;4.824;2024-02-15T13:44:27;4.60;;;1.55;;
85223;SDS011;75619;51.316;4.824;2024-02-15T13:46:53;2.05;;;1.08;;
85223;SDS011;75619;51.316;4.824;2024-02-15T13:49:22;4.60;;;1.10;;
85223;SDS011;75619;51.316;4.824;2024-02-15T13:51:48;3.95;;;1.75;;
85223;SDS011;75619;51.316;4.824;2024-02-15T13:54:17;3.70;;;1.20;;
85223;SDS011;75619;51.316;4.824;2024-02-15T13:56:43;4.95;;;1.20;;
85223;SDS011;75619;51.316;4.824;2024-02-15T13:59:09;4.07;;;1.60;;
85223;SDS011;75619;51.316;4.824;2024-02-15T14:01:36;3.38;;;1.30;;
85223;SDS011;75619;51.316;4.824;2024-02-15T14:04:08;4.53;;;1.05;;
85223;SDS011;75619;51.316;4.824;2024-02-15T14:06:34;3.70;;;1.20;;
85223;SDS011;75619;51.316;4.824;2024-02-15T14:09:02;4.35;;;1.30;;
85223;SDS011;75619;51.316;4.824;2024-02-15T14:11:28;4.95;;;1.30;;
85223;SDS011;75619;51.316;4.824;2024-02-15T14:13:55;4.78;;;1.30;;
85223;SDS011;75619;51.316;4.824;2024-02-15T14:16:23;3.20;;;1.27;;
85223;SDS011;75619;51.316;4.824;2024-02-15T14:18:50;5.57;;;1.27;;
85223;SDS011;75619;51.316;4.824;2024-02-15T14:21:17;5.35;;;1.40;;
85223;SDS011;75619;51.316;4.824;2024-02-15T14:23:44;2.83;;;1.15;;
85223;SDS011;75619;51.316;4.824;2024-02-15T14:26:09;3.65;;;1.13;;
85223;SDS011;75619;51.316;4.824;2024-02-15T14:28:35;3.72;;;1.00;;
85223;SDS011;75619;51.316;4.824;2024-02-15T14:31:01;5.18;;;0.90;;
85223;SDS011;75619;51.316;4.824;2024-02-15T14:33:47;4.13;;;1.25;;
85223;SDS011;75619;51.316;4.824;2024-02-15T14:36:15;8.85;;;1.58;;
85223;SDS011;75619;51.316;4.824;2024-02-15T14:38:40;2.83;;;1.00;;
85223;SDS011;75619;51.316;4.824;2024-02-15T14:41:06;4.65;;;1.35;;
85223;SDS011;75619;51.316;4.824;2024-02-15T14:43:32;3.63;;;1.13;;
85223;SDS011;75619;51.316;4.824;2024-02-15T14:45:58;4.15;;;1.23;;
85223;SDS011;75619;51.316;4.824;2024-02-15T14:48:26;3.42;;;1.13;;
85223;SDS011;75619;51.316;4.824;2024-02-15T14:50:52;4.53;;;1.23;;
85223;SDS011;75619;51.316;4.824;2024-02-15T14:53:18;5.00;;;1.20;;
85223;SDS011;75619;51.316;4.824;2024-02-15T14:55:43;3.13;;;1.10;;
85223;SDS011;75619;51.316;4.824;2024-02-15T14:58:12;3.50;;;1.40;;
85223;SDS011;75619;51.316;4.824;2024-02-15T15:00:41;2.83;;;1.10;;
85223;SDS011;75619;51.316;4.824;2024-02-15T15:03:07;5.05;;;1.73;;
85223;SDS011;75619;51.316;4.824;2024-02-15T15:05:33;3.83;;;1.20;;
85223;SDS011;75619;51.316;4.824;2024-02-15T15:08:17;3.80;;;1.38;;
85223;SDS011;75619;51.316;4.824;2024-02-15T15:11:01;8.48;;;1.20;;
85223;SDS011;75619;51.316;4.824;2024-02-15T15:13:45;2.38;;;1.35;;
85223;SDS011;75619;51.316;4.824;2024-02-15T15:16:14;3.03;;;1.17;;
85223;SDS011;75619;51.316;4.824;2024-02-15T15:18:43;3.30;;;1.13;;
85223;SDS011;75619;51.316;4.824;2024-02-15T15:21:11;5.50;;;1.13;;
85223;SDS011;75619;51.316;4.824;2024-02-15T15:23:37;5.00;;;1.50;;